createdAt,value
2023-07-20T00:01:24.506Z,25.00
2023-07-20T00:02:24.440Z,25.00
2023-07-20T00:03:24.419Z,25.00
2023-07-20T00:04:24.493Z,25.00
2023-07-20T00:05:24.421Z,25.00
2023-07-20T00:06:24.596Z,25.00
2023-07-20T00:07:24.425Z,25.00
2023-07-20T00:08:24.427Z,25.00
2023-07-20T00:09:24.429Z,25.00
2023-07-20T00:10:24.423Z,26.30
2023-07-20T00:11:24.438Z,26.83
2023-07-20T00:12:24.419Z,27.40
2023-07-20T00:13:24.421Z,25.71
2023-07-20T00:14:24.420Z,27.29
2023-07-20T00:15:24.413Z,27.90
2023-07-20T00:16:24.650Z,25.97
2023-07-20T00:17:24.471Z,28.30
2023-07-20T00:18:24.420Z,28.56
2023-07-20T00:19:24.380Z,25.81
2023-07-20T00:20:24.408Z,27.42
2023-07-20T00:21:24.392Z,26.97
2023-07-20T00:22:24.402Z,28.55
2023-07-20T00:23:24.432Z,28.63
2023-07-20T00:24:24.417Z,28.82
2023-07-20T00:25:24.416Z,29.17
2023-07-20T00:26:24.610Z,28.74
2023-07-20T00:27:24.421Z,28.85
2023-07-20T00:28:24.416Z,29.85
2023-07-20T00:29:24.422Z,29.72
2023-07-20T00:30:24.407Z,28.62
2023-07-20T00:31:24.413Z,29.67
2023-07-20T00:32:24.408Z,32.93
2023-07-20T00:33:24.381Z,29.12
2023-07-20T00:34:24.410Z,30.73
2023-07-20T00:35:24.382Z,29.10
2023-07-20T00:36:24.604Z,29.95
2023-07-20T00:37:24.386Z,28.49
2023-07-20T00:38:24.357Z,26.86
2023-07-20T00:39:24.354Z,26.00
2023-07-20T00:40:24.352Z,27.69
2023-07-20T00:41:24.365Z,27.86
2023-07-20T00:42:24.342Z,28.31
2023-07-20T00:43:24.342Z,28.35
2023-07-20T00:44:24.345Z,28.67
2023-07-20T00:45:24.334Z,29.15
2023-07-20T00:46:24.691Z,29.45
2023-07-20T00:47:24.369Z,27.38
2023-07-20T00:48:24.352Z,29.37
2023-07-20T00:49:24.354Z,27.34
2023-07-20T00:50:24.355Z,30.09
2023-07-20T00:51:24.366Z,26.92
2023-07-20T00:52:24.365Z,25.42
2023-07-20T00:53:24.371Z,29.87
2023-07-20T00:54:24.374Z,29.01
2023-07-20T00:55:24.381Z,29.58
2023-07-20T00:56:24.753Z,29.55
2023-07-20T00:57:24.438Z,29.54
2023-07-20T00:58:24.489Z,27.91
2023-07-20T00:59:24.504Z,29.32
2023-07-20T01:00:24.560Z,30.45
2023-07-20T01:01:24.639Z,29.96
2023-07-20T01:02:24.658Z,33.23
2023-07-20T01:03:24.767Z,29.08
2023-07-20T01:04:24.720Z,28.46
2023-07-20T01:05:24.769Z,29.12
2023-07-20T01:06:25.092Z,29.87
2023-07-20T01:07:24.856Z,30.70
2023-07-20T01:08:24.905Z,31.17
2023-07-20T01:09:24.929Z,31.64
2023-07-20T01:10:24.973Z,29.35
2023-07-20T01:11:25.032Z,31.71
2023-07-20T01:12:25.059Z,30.91
2023-07-20T01:13:25.132Z,30.46
2023-07-20T01:14:25.153Z,30.32
2023-07-20T01:15:25.185Z,29.12
2023-07-20T01:16:25.492Z,29.34
2023-07-20T01:17:25.226Z,29.74
2023-07-20T01:18:25.217Z,29.94
2023-07-20T01:19:25.188Z,30.87
2023-07-20T01:20:25.208Z,30.27
2023-07-20T01:21:25.213Z,31.17
2023-07-20T01:22:25.255Z,30.74
2023-07-20T01:23:25.277Z,31.10
2023-07-20T01:24:25.193Z,31.66
2023-07-20T01:25:25.192Z,30.68
2023-07-20T01:26:25.231Z,28.14
2023-07-20T01:27:25.204Z,31.33
2023-07-20T01:28:25.198Z,34.16
2023-07-20T01:29:25.202Z,30.15
2023-07-20T01:30:25.210Z,31.59
2023-07-20T01:31:25.273Z,28.60
2023-07-20T01:32:25.344Z,30.99
2023-07-20T01:33:25.319Z,30.60
2023-07-20T01:34:25.374Z,28.58
2023-07-20T01:35:25.403Z,32.53
2023-07-20T01:36:25.502Z,30.93
2023-07-20T01:37:25.498Z,30.49
2023-07-20T01:38:25.577Z,31.21
2023-07-20T01:39:25.578Z,27.22
2023-07-20T01:40:25.623Z,30.17
2023-07-20T01:41:25.666Z,29.33
2023-07-20T01:42:25.708Z,30.76
2023-07-20T01:43:25.753Z,32.34
2023-07-20T01:44:25.815Z,30.41
2023-07-20T01:45:25.844Z,28.55
2023-07-20T01:46:26.158Z,29.92
2023-07-20T01:47:25.960Z,29.13
2023-07-20T01:48:25.981Z,30.75
2023-07-20T01:49:26.024Z,29.19
2023-07-20T01:50:26.057Z,32.74
2023-07-20T01:51:26.072Z,32.81
2023-07-20T01:52:26.054Z,33.26
2023-07-20T01:53:26.049Z,31.55
2023-07-20T01:54:26.054Z,33.00
2023-07-20T01:55:26.056Z,31.71
2023-07-20T01:56:26.050Z,31.37
2023-07-20T01:57:26.063Z,28.02
2023-07-20T01:58:26.072Z,30.78
2023-07-20T01:59:26.060Z,31.46
2023-07-20T02:00:26.052Z,31.13
2023-07-20T02:01:26.086Z,30.64
2023-07-20T02:02:26.104Z,29.76
2023-07-20T02:03:26.069Z,29.92
2023-07-20T02:04:26.082Z,30.53
2023-07-20T02:05:26.086Z,30.74
2023-07-20T02:06:26.206Z,31.57
2023-07-20T02:07:26.080Z,32.42
2023-07-20T02:08:26.075Z,30.19
2023-07-20T02:09:26.092Z,29.71
2023-07-20T02:10:26.103Z,32.03
2023-07-20T02:11:26.100Z,30.18
2023-07-20T02:12:26.110Z,29.78
2023-07-20T02:13:26.102Z,31.17
2023-07-20T02:14:26.097Z,31.35
2023-07-20T02:15:26.120Z,30.28
2023-07-20T02:16:26.373Z,30.87
2023-07-20T02:17:26.259Z,26.94
2023-07-20T02:18:26.259Z,30.17
2023-07-20T02:19:26.321Z,29.19
2023-07-20T02:20:26.353Z,32.61
2023-07-20T02:21:26.408Z,29.29
2023-07-20T02:22:26.445Z,30.78
2023-07-20T02:23:26.509Z,28.42
2023-07-20T02:24:26.537Z,27.16
2023-07-20T02:25:26.582Z,30.39
2023-07-20T02:26:26.633Z,27.16
2023-07-20T02:27:26.673Z,29.09
2023-07-20T02:28:26.717Z,30.52
2023-07-20T02:29:26.774Z,33.53
2023-07-20T02:30:26.806Z,30.91
2023-07-20T02:31:26.899Z,27.87
2023-07-20T02:32:26.999Z,28.06
2023-07-20T02:33:26.864Z,28.59
2023-07-20T02:34:26.861Z,29.89
2023-07-20T02:35:26.885Z,30.08
2023-07-20T02:36:26.870Z,30.75
2023-07-20T02:37:26.866Z,31.93
2023-07-20T02:38:26.871Z,33.50
2023-07-20T02:39:26.876Z,29.97
2023-07-20T02:40:26.872Z,30.13
2023-07-20T02:41:26.889Z,29.79
2023-07-20T02:42:26.878Z,29.15
2023-07-20T02:43:26.937Z,30.94
2023-07-20T02:44:26.985Z,30.68
2023-07-20T02:45:27.028Z,28.51
2023-07-20T02:46:27.117Z,30.38
2023-07-20T02:47:27.132Z,30.77
2023-07-20T02:48:27.176Z,29.33
2023-07-20T02:49:27.225Z,30.82
2023-07-20T02:50:27.247Z,29.93
2023-07-20T02:51:27.301Z,29.25
2023-07-20T02:52:27.348Z,30.06
2023-07-20T02:53:27.411Z,30.31
2023-07-20T02:54:27.473Z,30.65
2023-07-20T02:55:27.507Z,25.90
2023-07-20T02:56:27.563Z,30.80
2023-07-20T02:57:27.620Z,29.55
2023-07-20T02:58:27.630Z,29.74
2023-07-20T02:59:27.640Z,29.92
2023-07-20T03:00:27.622Z,30.59
2023-07-20T03:01:27.671Z,31.08
2023-07-20T03:02:27.630Z,32.48
2023-07-20T03:03:27.730Z,33.17
2023-07-20T03:04:27.659Z,28.36
2023-07-20T03:05:27.657Z,31.09
2023-07-20T03:06:27.707Z,31.36
2023-07-20T03:07:27.670Z,29.14
2023-07-20T03:08:27.665Z,30.35
2023-07-20T03:09:27.674Z,29.76
2023-07-20T03:10:27.698Z,27.24
2023-07-20T03:11:27.747Z,26.41
2023-07-20T03:12:27.801Z,25.18
2023-07-20T03:13:27.865Z,25.00
2023-07-20T03:14:27.921Z,25.32
2023-07-20T03:15:27.974Z,25.00
2023-07-20T03:16:28.108Z,25.82
2023-07-20T03:17:28.140Z,27.61
2023-07-20T03:18:28.164Z,25.07
2023-07-20T03:19:28.228Z,25.94
2023-07-20T03:20:28.235Z,25.22
2023-07-20T03:21:28.256Z,25.18
2023-07-20T03:22:28.255Z,26.20
2023-07-20T03:23:28.274Z,25.00
2023-07-20T03:24:28.305Z,26.51
2023-07-20T03:25:29.005Z,26.49
2023-07-20T03:26:28.335Z,25.00
2023-07-20T03:27:28.336Z,25.32
2023-07-20T03:28:28.344Z,23.50
2023-07-20T03:29:28.348Z,16.89
2023-07-20T03:30:28.358Z,12.22
2023-07-20T03:31:28.424Z,6.99
2023-07-20T03:32:28.395Z,25.00
2023-07-20T03:33:28.384Z,26.88
2023-07-20T03:34:28.389Z,25.27
2023-07-20T03:35:28.419Z,27.30
2023-07-20T03:36:28.426Z,25.55
2023-07-20T03:37:28.432Z,26.79
2023-07-20T03:38:28.449Z,27.54
2023-07-20T03:39:28.471Z,27.55
2023-07-20T03:40:28.487Z,24.45
2023-07-20T03:41:28.474Z,16.43
2023-07-20T03:42:28.511Z,14.97
2023-07-20T03:43:28.489Z,14.13
2023-07-20T03:44:28.512Z,25.13
2023-07-20T03:45:28.517Z,25.20
2023-07-20T03:46:28.630Z,26.25
2023-07-20T03:47:28.574Z,27.16
2023-07-20T03:48:28.568Z,26.96
2023-07-20T03:49:28.555Z,26.37
2023-07-20T03:50:28.577Z,27.22
2023-07-20T03:51:28.624Z,25.89
2023-07-20T03:52:28.693Z,25.49
2023-07-20T03:53:28.773Z,25.93
2023-07-20T03:54:28.825Z,26.20
2023-07-20T03:55:28.899Z,25.00
2023-07-20T03:56:28.951Z,24.57
2023-07-20T03:57:29.050Z,26.37
2023-07-20T03:58:29.105Z,26.14
2023-07-20T03:59:29.154Z,26.13
2023-07-20T04:00:29.245Z,27.20
2023-07-20T04:01:29.340Z,25.29
2023-07-20T04:02:29.394Z,27.08
2023-07-20T04:03:29.517Z,26.24
2023-07-20T04:04:29.517Z,27.72
2023-07-20T04:05:29.595Z,26.66
2023-07-20T04:06:29.671Z,26.82
2023-07-20T04:07:29.743Z,27.38
2023-07-20T04:08:29.837Z,25.61
2023-07-20T04:09:29.885Z,25.29
2023-07-20T04:10:29.977Z,25.00
2023-07-20T04:11:30.053Z,26.51
2023-07-20T04:12:30.114Z,27.11
2023-07-20T04:13:30.186Z,26.56
2023-07-20T04:14:30.271Z,26.78
2023-07-20T04:15:30.359Z,26.60
2023-07-20T04:16:30.504Z,26.50
2023-07-20T04:17:30.539Z,25.69
2023-07-20T04:18:30.573Z,27.01
2023-07-20T04:19:30.663Z,27.04
2023-07-20T04:20:30.726Z,28.04
2023-07-20T04:21:30.777Z,26.90
2023-07-20T04:22:30.899Z,26.69
2023-07-20T04:23:30.930Z,26.95
2023-07-20T04:24:31.024Z,27.80
2023-07-20T04:25:31.094Z,28.16
2023-07-20T04:26:31.170Z,25.92
2023-07-20T04:27:31.235Z,27.99
2023-07-20T04:28:31.236Z,28.05
2023-07-20T04:29:31.246Z,28.24
2023-07-20T04:30:31.282Z,28.26
2023-07-20T04:31:31.273Z,25.54
2023-07-20T04:32:31.308Z,22.80
2023-07-20T04:33:31.315Z,28.11
2023-07-20T04:34:31.315Z,27.50
2023-07-20T04:35:31.334Z,26.58
2023-07-20T04:36:31.361Z,25.00
2023-07-20T04:37:31.356Z,25.18
2023-07-20T04:38:31.370Z,25.90
2023-07-20T04:39:32.425Z,26.00
2023-07-20T04:40:31.400Z,24.15
2023-07-20T04:41:33.583Z,25.29
2023-07-20T04:42:31.412Z,29.23
2023-07-20T04:43:31.410Z,25.65
2023-07-20T04:44:31.441Z,27.18
2023-07-20T04:45:31.444Z,26.87
2023-07-20T04:46:31.491Z,28.88
2023-07-20T04:47:31.465Z,27.22
2023-07-20T04:48:31.458Z,25.94
2023-07-20T04:49:31.463Z,26.98
2023-07-20T04:50:31.517Z,30.20
2023-07-20T04:51:31.531Z,29.32
2023-07-20T04:52:42.439Z,27.21
2023-07-20T04:53:32.505Z,27.62
2023-07-20T04:54:31.521Z,27.57
2023-07-20T04:55:31.523Z,27.78
2023-07-20T04:56:31.534Z,28.47
2023-07-20T04:57:31.561Z,27.94
2023-07-20T04:58:31.568Z,26.23
2023-07-20T04:59:31.574Z,26.22
2023-07-20T05:00:31.602Z,27.02
2023-07-20T05:01:31.663Z,28.62
2023-07-20T05:02:31.689Z,26.91
2023-07-20T05:03:31.658Z,29.59
2023-07-20T05:04:38.372Z,30.91
2023-07-20T05:05:32.667Z,31.08
2023-07-20T05:06:31.688Z,31.20
2023-07-20T05:07:31.682Z,31.32
2023-07-20T05:08:31.692Z,31.42
2023-07-20T05:09:31.708Z,33.35
2023-07-20T05:10:31.753Z,31.25
2023-07-20T05:11:31.741Z,32.53
2023-07-20T05:12:31.746Z,36.25
2023-07-20T05:13:31.774Z,34.97
2023-07-20T05:14:31.782Z,35.17
2023-07-20T05:15:31.797Z,35.70
2023-07-20T05:16:31.839Z,35.87
2023-07-20T05:17:31.849Z,35.34
2023-07-20T05:18:31.836Z,37.21
2023-07-20T05:19:31.844Z,36.24
2023-07-20T05:20:31.864Z,35.04
2023-07-20T05:21:31.864Z,33.50
2023-07-20T05:22:31.882Z,35.33
2023-07-20T05:23:31.912Z,32.23
2023-07-20T05:24:31.907Z,34.37
2023-07-20T05:25:31.914Z,30.93
2023-07-20T05:26:31.933Z,31.78
2023-07-20T05:27:31.935Z,31.82
2023-07-20T05:28:31.942Z,30.69
2023-07-20T05:29:31.951Z,32.29
2023-07-20T05:30:31.960Z,31.98
2023-07-20T05:31:32.032Z,32.20
2023-07-20T05:32:32.037Z,28.93
2023-07-20T05:33:32.029Z,28.57
2023-07-20T05:34:31.997Z,26.05
2023-07-20T05:35:32.009Z,30.42
2023-07-20T05:36:32.022Z,29.36
2023-07-20T05:37:32.041Z,26.62
2023-07-20T05:38:32.052Z,25.75
2023-07-20T05:39:32.064Z,25.70
2023-07-20T05:40:32.080Z,28.08
2023-07-20T05:41:32.078Z,27.82
2023-07-20T05:42:32.086Z,27.52
2023-07-20T05:43:32.122Z,27.16
2023-07-20T05:44:32.118Z,28.72
2023-07-20T05:45:32.118Z,27.68
2023-07-20T05:46:42.449Z,27.84
2023-07-20T05:47:33.206Z,28.01
2023-07-20T05:48:32.163Z,28.75
2023-07-20T05:49:32.162Z,28.60
2023-07-20T05:50:32.175Z,29.84
2023-07-20T05:51:34.131Z,31.45
2023-07-20T05:52:32.205Z,35.46
2023-07-20T05:53:32.247Z,33.66
2023-07-20T05:54:32.269Z,36.97
2023-07-20T05:55:32.248Z,36.13
2023-07-20T05:56:32.277Z,36.43
2023-07-20T05:57:32.277Z,37.25
2023-07-20T05:58:32.308Z,38.53
2023-07-20T05:59:32.316Z,38.72
2023-07-20T06:00:32.322Z,37.43
2023-07-20T06:01:32.370Z,39.31
2023-07-20T06:02:32.401Z,38.95
2023-07-20T06:03:32.387Z,40.74
2023-07-20T06:04:32.410Z,34.56
2023-07-20T06:05:32.442Z,36.24
2023-07-20T06:06:32.403Z,36.08
2023-07-20T06:07:32.400Z,35.94
2023-07-20T06:08:32.439Z,34.76
2023-07-20T06:09:32.421Z,34.39
2023-07-20T06:10:32.438Z,33.85
2023-07-20T06:11:32.441Z,33.95
2023-07-20T06:12:32.451Z,34.13
2023-07-20T06:13:32.474Z,34.25
2023-07-20T06:14:32.484Z,33.06
2023-07-20T06:15:32.513Z,34.35
2023-07-20T06:16:32.563Z,33.71
2023-07-20T06:17:32.589Z,29.87
2023-07-20T06:18:32.518Z,33.64
2023-07-20T06:19:32.533Z,29.47
2023-07-20T06:20:32.543Z,28.77
2023-07-20T06:21:32.568Z,29.52
2023-07-20T06:22:32.593Z,25.32
2023-07-20T06:23:32.586Z,25.30
2023-07-20T06:24:32.611Z,27.38
2023-07-20T06:25:32.614Z,28.22
2023-07-20T06:26:32.635Z,27.74
2023-07-20T06:27:32.640Z,25.57
2023-07-20T06:28:32.672Z,28.80
2023-07-20T06:29:32.671Z,28.88
2023-07-20T06:30:32.678Z,30.33
2023-07-20T06:31:32.704Z,28.93
2023-07-20T06:32:32.817Z,31.25
2023-07-20T06:33:32.731Z,30.12
2023-07-20T06:34:32.715Z,29.31
2023-07-20T06:35:32.729Z,33.18
2023-07-20T06:36:32.744Z,30.80
2023-07-20T06:37:32.746Z,30.99
2023-07-20T06:38:32.792Z,31.54
2023-07-20T06:40:33.406Z,33.84
2023-07-20T06:44:32.841Z,31.19
2023-07-20T06:45:32.904Z,31.97
2023-07-20T06:46:32.971Z,33.73
2023-07-20T06:47:32.898Z,31.28
2023-07-20T06:48:32.908Z,32.72
2023-07-20T06:49:32.917Z,33.17
2023-07-20T06:51:32.947Z,36.54
2023-07-20T06:52:32.957Z,38.19
2023-07-20T06:53:32.979Z,36.82
2023-07-20T06:55:40.209Z,35.98
2023-07-20T06:56:34.369Z,36.03
2023-07-20T06:57:33.037Z,35.13
2023-07-20T06:58:33.039Z,33.28
2023-07-20T06:59:33.060Z,27.78
2023-07-20T07:00:33.158Z,29.21
2023-07-20T07:01:33.128Z,25.91
2023-07-20T07:02:33.172Z,29.50
2023-07-20T07:04:33.250Z,26.13
2023-07-20T07:05:37.235Z,26.07
2023-07-20T07:06:33.183Z,23.66
2023-07-20T07:07:33.202Z,22.26
2023-07-20T07:08:33.232Z,17.75
2023-07-20T07:09:33.209Z,14.13
2023-07-20T07:10:33.235Z,11.85
2023-07-20T07:11:33.242Z,26.92
2023-07-20T07:12:33.438Z,27.01
2023-07-20T07:13:33.295Z,26.63
2023-07-20T07:14:33.520Z,22.06
2023-07-20T07:15:33.384Z,16.24
2023-07-20T07:16:33.396Z,17.95
2023-07-20T07:18:33.359Z,26.03
2023-07-20T07:19:33.353Z,27.48
2023-07-20T07:20:33.397Z,25.95
2023-07-20T07:21:33.432Z,27.60
2023-07-20T07:22:33.459Z,25.25
2023-07-20T07:23:33.471Z,25.00
2023-07-20T07:24:33.455Z,27.71
2023-07-20T07:25:33.465Z,25.93
2023-07-20T07:26:33.512Z,25.00
2023-07-20T07:27:33.507Z,28.50
2023-07-20T07:28:33.527Z,29.78
2023-07-20T07:29:33.541Z,27.96
2023-07-20T07:30:34.891Z,25.00
2023-07-20T07:31:33.639Z,25.69
2023-07-20T07:32:33.698Z,27.94
2023-07-20T07:33:33.625Z,26.10
2023-07-20T07:34:33.629Z,27.49
2023-07-20T07:35:33.662Z,25.98
2023-07-20T07:36:33.717Z,31.06
2023-07-20T07:37:39.450Z,25.38
2023-07-20T07:39:35.400Z,25.51
2023-07-20T07:40:33.842Z,22.65
2023-07-20T07:41:33.868Z,15.10
2023-07-20T07:42:33.886Z,12.19
2023-07-20T07:43:33.881Z,3.08
2023-07-20T07:44:33.919Z,0.00
2023-07-20T07:45:33.934Z,0.00
2023-07-20T07:46:34.037Z,0.00
2023-07-20T07:47:34.024Z,22.49
2023-07-20T07:48:33.990Z,25.33
2023-07-20T07:49:34.017Z,26.97
2023-07-20T07:50:34.036Z,25.00
2023-07-20T07:51:34.059Z,26.47
2023-07-20T07:52:34.114Z,26.96
2023-07-20T07:53:34.176Z,25.37
2023-07-20T07:54:34.189Z,25.00
2023-07-20T07:55:34.213Z,25.00
2023-07-20T07:56:34.266Z,25.00
2023-07-20T07:57:34.319Z,26.15
2023-07-20T07:58:34.386Z,26.92
2023-07-20T07:59:34.453Z,25.42
2023-07-20T08:00:34.476Z,25.00
2023-07-20T08:01:34.548Z,25.00
2023-07-20T08:02:34.632Z,25.70
2023-07-20T08:03:34.756Z,25.00
2023-07-20T08:04:34.830Z,25.33
2023-07-20T08:05:34.888Z,25.93
2023-07-20T08:06:34.983Z,25.00
2023-07-20T08:07:35.068Z,26.21
2023-07-20T08:08:35.121Z,27.39
2023-07-20T08:09:35.208Z,25.27
2023-07-20T08:10:35.265Z,26.12
2023-07-20T08:11:35.335Z,27.37
2023-07-20T08:12:35.377Z,28.85
2023-07-20T08:13:35.430Z,25.00
2023-07-20T08:14:35.549Z,27.63
2023-07-20T08:15:35.568Z,26.41
2023-07-20T08:16:35.770Z,27.32
2023-07-20T08:17:35.810Z,27.83
2023-07-20T08:18:35.808Z,27.28
2023-07-20T08:19:35.816Z,30.95
2023-07-20T08:20:35.763Z,30.61
2023-07-20T08:21:35.845Z,29.31
2023-07-20T08:22:35.863Z,25.43
2023-07-20T08:23:35.888Z,25.15
2023-07-20T08:24:35.951Z,26.21
2023-07-20T08:25:35.948Z,26.97
2023-07-20T08:26:36.035Z,28.45
2023-07-20T08:27:36.017Z,25.50
2023-07-20T08:28:36.004Z,25.97
2023-07-20T08:29:36.041Z,25.12
2023-07-20T08:30:36.073Z,27.86
2023-07-20T08:31:36.078Z,27.33
2023-07-20T08:32:36.154Z,25.00
2023-07-20T08:33:36.119Z,25.15
2023-07-20T08:34:36.914Z,25.26
2023-07-20T08:35:36.119Z,23.16
2023-07-20T08:36:36.136Z,24.00
2023-07-20T08:37:36.154Z,17.97
2023-07-20T08:38:36.160Z,16.92
2023-07-20T08:39:36.163Z,14.87
2023-07-20T08:40:36.179Z,8.27
2023-07-20T08:41:36.196Z,10.17
2023-07-20T08:42:36.215Z,13.27
2023-07-20T08:43:36.233Z,25.46
2023-07-20T08:44:36.225Z,26.04
2023-07-20T08:45:36.242Z,25.00
2023-07-20T08:46:36.280Z,25.00
2023-07-20T08:47:36.279Z,26.96
2023-07-20T08:48:36.270Z,27.46
2023-07-20T08:49:36.276Z,33.27
2023-07-20T08:50:36.281Z,30.33
2023-07-20T08:51:36.297Z,26.57
2023-07-20T08:52:36.307Z,29.82
2023-07-20T08:53:36.316Z,25.23
2023-07-20T08:54:36.323Z,25.29
2023-07-20T08:55:36.332Z,22.13
2023-07-20T08:56:36.319Z,19.31
2023-07-20T08:57:36.334Z,16.39
2023-07-20T08:58:36.367Z,26.63
2023-07-20T08:59:36.354Z,26.32
2023-07-20T09:00:36.386Z,25.53
2023-07-20T09:01:36.393Z,24.81
2023-07-20T09:02:36.474Z,19.07
2023-07-20T09:03:36.455Z,17.75
2023-07-20T09:04:36.398Z,13.77
2023-07-20T09:05:36.429Z,15.43
2023-07-20T09:06:36.424Z,26.49
2023-07-20T09:07:36.429Z,25.66
2023-07-20T09:08:36.438Z,25.52
2023-07-20T09:09:36.464Z,26.12
2023-07-20T09:10:36.453Z,25.34
2023-07-20T09:11:36.452Z,23.01
2023-07-20T09:12:36.463Z,20.89
2023-07-20T09:13:36.473Z,23.05
2023-07-20T09:14:38.438Z,24.01
2023-07-20T09:15:36.455Z,28.48
2023-07-20T09:16:36.481Z,29.43
2023-07-20T09:18:36.462Z,39.68
2023-07-20T09:19:36.465Z,47.22
2023-07-20T09:20:36.534Z,54.80
2023-07-20T09:21:36.562Z,60.78
2023-07-20T09:22:36.609Z,65.15
2023-07-20T09:23:36.698Z,71.55
2023-07-20T09:24:37.689Z,85.67
2023-07-20T09:26:36.792Z,103.89
2023-07-20T09:27:36.816Z,109.91
2023-07-20T09:28:36.855Z,118.87
2023-07-20T09:29:36.896Z,125.74
2023-07-20T09:30:36.933Z,132.29
2023-07-20T09:34:40.344Z,146.69
2023-07-20T09:37:36.918Z,152.68
2023-07-20T09:39:05.058Z,164.52
2023-07-20T09:39:37.979Z,148.05
2023-07-20T09:42:36.964Z,148.80
2023-07-20T09:43:36.977Z,159.46
2023-07-20T09:47:36.959Z,149.87
2023-07-20T09:50:38.029Z,149.96
2023-07-20T09:51:36.939Z,150.19
2023-07-20T09:53:36.928Z,150.96
2023-07-20T09:54:36.923Z,168.73
2023-07-20T09:55:36.934Z,200.40
2023-07-20T09:56:36.936Z,246.34
2023-07-20T09:57:36.944Z,308.27
2023-07-20T09:58:36.945Z,249.18
2023-07-20T09:59:36.914Z,249.78
2023-07-20T10:01:36.943Z,249.61
2023-07-20T10:02:36.966Z,250.62
2023-07-20T10:03:36.938Z,253.44
2023-07-20T10:04:36.947Z,258.43
2023-07-20T10:05:37.006Z,264.26
2023-07-20T10:06:37.797Z,249.44
2023-07-20T10:07:37.874Z,248.10
2023-07-20T10:09:36.981Z,250.20
2023-07-20T10:10:36.971Z,250.83
2023-07-20T10:11:37.000Z,252.87
2023-07-20T10:12:36.997Z,257.53
2023-07-20T10:13:37.001Z,263.55
2023-07-20T10:14:36.998Z,248.63
2023-07-20T10:15:37.004Z,248.75
2023-07-20T10:16:37.034Z,249.89
2023-07-20T10:17:37.068Z,250.00
2023-07-20T10:18:37.038Z,250.00
2023-07-20T10:19:37.024Z,249.33
2023-07-20T10:20:37.037Z,249.31
2023-07-20T10:22:41.993Z,249.10
2023-07-20T10:23:38.071Z,249.33
2023-07-20T10:24:37.094Z,250.34
2023-07-20T10:25:37.058Z,253.45
2023-07-20T10:26:39.042Z,256.84
2023-07-20T10:27:37.076Z,249.51
2023-07-20T10:28:37.090Z,251.63
2023-07-20T10:29:37.098Z,254.91
2023-07-20T10:30:37.094Z,260.27
2023-07-20T10:31:37.146Z,267.65
2023-07-20T10:32:38.468Z,252.73
2023-07-20T10:33:37.103Z,250.00
2023-07-20T10:34:37.132Z,250.00
2023-07-20T10:35:37.125Z,249.01
2023-07-20T10:36:37.172Z,249.85
2023-07-20T10:37:37.228Z,250.00
2023-07-20T10:38:37.305Z,248.56
2023-07-20T10:39:37.387Z,248.77
2023-07-20T10:40:37.448Z,250.00
2023-07-20T10:41:37.520Z,249.07
2023-07-20T10:42:37.573Z,249.84
2023-07-20T10:43:37.693Z,248.38
2023-07-20T10:44:37.729Z,250.00
2023-07-20T10:45:37.796Z,249.24
2023-07-20T10:46:37.908Z,248.56
2023-07-20T10:47:38.063Z,249.64
2023-07-20T10:48:39.895Z,250.00
2023-07-20T10:49:38.010Z,248.18
2023-07-20T10:50:38.023Z,249.08
2023-07-20T10:51:38.013Z,248.83
2023-07-20T10:52:38.017Z,249.16
2023-07-20T10:53:38.016Z,248.79
2023-07-20T10:54:39.506Z,248.84
2023-07-20T10:55:38.028Z,248.87
2023-07-20T10:56:38.835Z,249.08
2023-07-20T10:57:38.034Z,248.40
2023-07-20T10:58:38.048Z,249.28
2023-07-20T10:59:38.067Z,249.80
2023-07-20T11:00:38.068Z,249.66
2023-07-20T11:01:38.122Z,247.89
2023-07-20T11:02:38.132Z,248.30
2023-07-20T11:03:38.695Z,249.40
2023-07-20T11:04:38.101Z,248.95
2023-07-20T11:05:38.351Z,249.25
2023-07-20T11:06:38.094Z,249.11
2023-07-20T11:07:38.108Z,249.70
2023-07-20T11:08:38.108Z,249.64
2023-07-20T11:09:39.426Z,250.00
2023-07-20T11:10:38.181Z,248.99
2023-07-20T11:11:38.280Z,249.18
2023-07-20T11:12:38.315Z,248.55
2023-07-20T11:13:38.366Z,249.61
2023-07-20T11:14:38.435Z,249.45
2023-07-20T11:15:38.497Z,249.65
2023-07-20T11:16:38.624Z,249.94
2023-07-20T11:17:38.651Z,249.32
2023-07-20T11:18:38.684Z,249.81
2023-07-20T11:20:38.765Z,249.63
2023-07-20T11:21:45.215Z,249.97
2023-07-20T11:22:39.757Z,250.08
2023-07-20T11:23:38.757Z,250.36
2023-07-20T11:24:38.847Z,250.77
2023-07-20T11:25:38.773Z,251.80
2023-07-20T11:26:40.041Z,252.87
2023-07-20T11:27:38.786Z,249.34
2023-07-20T11:28:38.790Z,249.51
2023-07-20T11:29:38.806Z,248.61
2023-07-20T11:30:38.884Z,249.81
2023-07-20T11:31:38.803Z,249.77
2023-07-20T11:32:38.816Z,249.90
2023-07-20T11:33:38.800Z,249.13
2023-07-20T11:34:38.815Z,249.75
2023-07-20T11:35:38.802Z,249.78
2023-07-20T11:37:38.809Z,250.50
2023-07-20T11:38:39.267Z,251.42
2023-07-20T11:39:38.809Z,255.01
2023-07-20T11:40:38.832Z,247.73
2023-07-20T11:41:38.822Z,248.90
2023-07-20T11:43:38.820Z,248.68
2023-07-20T11:44:38.856Z,247.39
2023-07-20T11:45:38.821Z,247.72
2023-07-20T11:46:38.893Z,248.20
2023-07-20T11:47:38.843Z,247.73
2023-07-20T11:48:38.821Z,248.63
2023-07-20T11:49:38.884Z,247.45
2023-07-20T11:50:38.843Z,249.74
2023-07-20T11:51:38.825Z,248.66
2023-07-20T11:52:38.810Z,249.81
2023-07-20T11:53:38.808Z,248.47
2023-07-20T11:54:38.867Z,249.99
2023-07-20T11:55:38.822Z,249.01
2023-07-20T11:56:38.813Z,248.05
2023-07-20T11:57:38.812Z,249.87
2023-07-20T11:58:38.810Z,249.37
2023-07-20T11:59:38.820Z,248.62
2023-07-20T12:00:38.827Z,248.72
2023-07-20T12:01:38.832Z,248.99
2023-07-20T12:02:38.835Z,249.49
2023-07-20T12:03:38.865Z,250.12
2023-07-20T12:04:38.803Z,250.83
2023-07-20T12:05:55.538Z,249.65
2023-07-20T12:06:39.803Z,249.71
2023-07-20T12:07:38.792Z,249.84
2023-07-20T12:08:38.791Z,250.12
2023-07-20T12:09:50.964Z,250.15
2023-07-20T12:10:38.794Z,249.74
2023-07-20T12:11:38.798Z,250.00
2023-07-20T12:12:38.790Z,250.43
2023-07-20T12:13:38.788Z,251.06
2023-07-20T12:14:38.796Z,252.02
2023-07-20T12:15:38.779Z,249.57
2023-07-20T12:16:38.877Z,248.76
2023-07-20T12:17:38.898Z,249.13
2023-07-20T12:18:38.806Z,250.00
2023-07-20T12:19:38.806Z,248.69
2023-07-20T12:20:38.783Z,248.77
2023-07-20T12:21:38.849Z,249.30
2023-07-20T12:22:38.861Z,249.62
2023-07-20T12:23:38.900Z,248.75
2023-07-20T12:24:39.040Z,249.57
2023-07-20T12:25:39.010Z,248.76
2023-07-20T12:26:39.067Z,248.82
2023-07-20T12:27:39.090Z,249.42
2023-07-20T12:28:39.138Z,249.89
2023-07-20T12:29:39.172Z,249.78
2023-07-20T12:30:39.221Z,249.59
2023-07-20T12:31:39.304Z,249.33
2023-07-20T12:32:39.363Z,249.40
2023-07-20T12:33:39.362Z,248.72
2023-07-20T12:34:39.422Z,249.28
2023-07-20T12:35:39.480Z,249.64
2023-07-20T12:36:39.538Z,249.18
2023-07-20T12:37:39.572Z,249.18
2023-07-20T12:38:39.628Z,249.55
2023-07-20T12:39:39.697Z,249.61
2023-07-20T12:40:39.772Z,248.89
2023-07-20T12:41:39.803Z,249.22
2023-07-20T12:42:39.844Z,249.64
2023-07-20T12:43:39.909Z,249.24
2023-07-20T12:44:39.970Z,248.68
2023-07-20T12:45:40.009Z,249.55
2023-07-20T12:46:40.145Z,248.98
2023-07-20T12:47:40.237Z,249.07
2023-07-20T12:48:40.539Z,249.29
2023-07-20T12:49:40.062Z,249.45
2023-07-20T12:50:40.066Z,249.10
2023-07-20T12:51:40.053Z,249.37
2023-07-20T12:52:40.053Z,249.83
2023-07-20T12:53:40.066Z,250.33
2023-07-20T12:54:40.079Z,250.91
2023-07-20T12:55:40.043Z,249.42
2023-07-20T12:57:40.024Z,248.71
2023-07-20T12:58:40.032Z,247.69
2023-07-20T12:59:40.009Z,249.27
2023-07-20T13:00:40.038Z,247.72
2023-07-20T13:01:40.027Z,248.49
2023-07-20T13:02:40.056Z,246.45
2023-07-20T13:04:13.652Z,249.52
2023-07-20T13:04:40.981Z,249.65
2023-07-20T13:06:39.974Z,250.18
2023-07-20T13:08:39.969Z,249.55
2023-07-20T13:09:40.014Z,249.81
2023-07-20T13:10:39.990Z,249.93
2023-07-20T13:11:39.973Z,249.71
2023-07-20T13:12:40.148Z,250.00
2023-07-20T13:13:39.978Z,250.05
2023-07-20T13:14:39.976Z,250.39
2023-07-20T13:15:39.967Z,251.07
2023-07-20T13:16:39.976Z,246.32
2023-07-20T13:17:40.035Z,248.75
2023-07-20T13:18:39.965Z,249.42
2023-07-20T13:19:39.963Z,245.52
2023-07-20T13:20:39.986Z,248.56